ITY8526 LIRF-OEMA
Flight info
| Callsign | ITY8526 |
|---|---|
| Flight time | 3h 45m |
| Altitude | 41000 |
| Route | SIPRO DCT MATED DCT LATAN UM872 PLH UL604 SALUN N705 MMA P751 DASUM Y234 FYM M872 EVANO J852 BOVET |
| Aircraft | A359/H-SDE2E3GHIJ3J4J5LM1ORWXY/LB1D1 |
Departure
| Time | 2026-05-08 12:14 |
|---|---|
| Airport | Rome–Fiumicino Leonardo da Vinci International Airport (LIRF) |
Arrival
| Time | 2026-05-08 16:00 |
|---|---|
| Airport | Prince Mohammad Bin Abdulaziz Airport (OEMA) |
| Time | Latitude | Longitude | Altitude | Speed | Heading |
|---|---|---|---|---|---|
| 2026-05-08 11:59 | 41.79699 | 12.24608 | 20 ft | 4 kts | 70° |
| 2026-05-08 12:01 | 41.79691 | 12.24578 | 21 ft | 3 kts | 70° |
| 2026-05-08 12:02 | 41.79683 | 12.24552 | 24 ft | 4 kts | 51° |
| 2026-05-08 12:02 | 41.79667 | 12.24533 | 24 ft | 4 kts | 16° |
| 2026-05-08 12:02 | 41.79643 | 12.24529 | 21 ft | 4 kts | 352° |
| 2026-05-08 12:02 | 41.79617 | 12.24536 | 21 ft | 4 kts | 342° |
| 2026-05-08 12:03 | 41.79596 | 12.24546 | 24 ft | 0 kts | 340° |
| 2026-05-08 12:05 | 41.79636 | 12.24526 | 21 ft | 9 kts | 340° |
| 2026-05-08 12:06 | 41.79705 | 12.24492 | 21 ft | 12 kts | 340° |
| 2026-05-08 12:06 | 41.79792 | 12.24449 | 20 ft | 15 kts | 340° |
| 2026-05-08 12:06 | 41.79885 | 12.24403 | 20 ft | 6 kts | 340° |
| 2026-05-08 12:06 | 41.79930 | 12.24381 | 20 ft | 8 kts | 336° |
| 2026-05-08 12:07 | 41.79952 | 12.24316 | 20 ft | 9 kts | 264° |
| 2026-05-08 12:07 | 41.79961 | 12.24243 | 22 ft | 9 kts | 306° |
| 2026-05-08 12:07 | 41.80005 | 12.24183 | 20 ft | 9 kts | 292° |
| 2026-05-08 12:07 | 41.79993 | 12.24094 | 20 ft | 11 kts | 252° |
| 2026-05-08 12:08 | 41.79978 | 12.23973 | 20 ft | 15 kts | 252° |
| 2026-05-08 12:08 | 41.79940 | 12.23836 | 20 ft | 17 kts | 250° |
| 2026-05-08 12:08 | 41.79909 | 12.23724 | 20 ft | 7 kts | 251° |
| 2026-05-08 12:08 | 41.79922 | 12.23664 | 21 ft | 7 kts | 310° |
| 2026-05-08 12:09 | 41.79970 | 12.23628 | 21 ft | 11 kts | 342° |
| 2026-05-08 12:09 | 41.80063 | 12.23589 | 26 ft | 16 kts | 342° |
| 2026-05-08 12:09 | 41.80188 | 12.23537 | 21 ft | 20 kts | 342° |
| 2026-05-08 12:09 | 41.80327 | 12.23478 | 21 ft | 22 kts | 342° |
| 2026-05-08 12:10 | 41.80480 | 12.23415 | 22 ft | 24 kts | 342° |
| 2026-05-08 12:10 | 41.80645 | 12.23346 | 22 ft | 26 kts | 342° |
| 2026-05-08 12:10 | 41.80820 | 12.23272 | 22 ft | 27 kts | 342° |
| 2026-05-08 12:10 | 41.81007 | 12.23194 | 22 ft | 29 kts | 342° |
| 2026-05-08 12:11 | 41.81203 | 12.23112 | 22 ft | 30 kts | 342° |
| 2026-05-08 12:11 | 41.81313 | 12.23066 | 22 ft | 14 kts | 342° |
| 2026-05-08 12:11 | 41.81417 | 12.23023 | 22 ft | 16 kts | 342° |
| 2026-05-08 12:11 | 41.81504 | 12.22960 | 22 ft | 15 kts | 308° |
| 2026-05-08 12:12 | 41.81556 | 12.22839 | 21 ft | 16 kts | 298° |
| 2026-05-08 12:12 | 41.81560 | 12.22722 | 20 ft | 11 kts | 253° |
| 2026-05-08 12:12 | 41.81542 | 12.22654 | 19 ft | 0 kts | 230° |
| 2026-05-08 12:12 | 41.81532 | 12.22649 | 19 ft | 2 kts | 199° |
| 2026-05-08 12:13 | 41.81520 | 12.22651 | 19 ft | 4 kts | 173° |
| 2026-05-08 12:13 | 41.81487 | 12.22663 | 20 ft | 6 kts | 162° |
| 2026-05-08 12:13 | 41.81424 | 12.22692 | 20 ft | 21 kts | 162° |
| 2026-05-08 12:13 | 41.81069 | 12.22840 | 21 ft | 89 kts | 162° |
| 2026-05-08 12:14 | 41.80271 | 12.23174 | 23 ft | 150 kts | 162° |
| 2026-05-08 12:14 | 41.79157 | 12.23666 | 397 ft | 173 kts | 161° |
| 2026-05-08 12:14 | 41.78033 | 12.24168 | 1305 ft | 171 kts | 163° |
| 2026-05-08 12:14 | 41.76838 | 12.24657 | 1837 ft | 192 kts | 164° |
| 2026-05-08 12:15 | 41.75483 | 12.25132 | 2364 ft | 208 kts | 167° |
| 2026-05-08 12:15 | 41.74015 | 12.25514 | 2911 ft | 223 kts | 172° |
| 2026-05-08 12:15 | 41.72387 | 12.25774 | 3304 ft | 247 kts | 176° |
| 2026-05-08 12:15 | 41.70619 | 12.25857 | 3869 ft | 260 kts | 181° |
| 2026-05-08 12:16 | 41.68789 | 12.25734 | 4623 ft | 266 kts | 186° |
| 2026-05-08 12:16 | 41.66935 | 12.25391 | 5398 ft | 271 kts | 191° |
| 2026-05-08 12:16 | 41.65089 | 12.24818 | 6291 ft | 274 kts | 195° |
| 2026-05-08 12:16 | 41.63264 | 12.24013 | 7140 ft | 278 kts | 200° |
| 2026-05-08 12:17 | 41.61480 | 12.22976 | 8019 ft | 281 kts | 205° |
| 2026-05-08 12:17 | 41.59773 | 12.21722 | 8883 ft | 286 kts | 211° |
| 2026-05-08 12:17 | 41.58088 | 12.20205 | 9786 ft | 291 kts | 214° |
| 2026-05-08 12:17 | 41.56372 | 12.18719 | 10462 ft | 302 kts | 207° |
| 2026-05-08 12:18 | 41.54358 | 12.17764 | 10817 ft | 321 kts | 189° |
| 2026-05-08 12:18 | 41.52065 | 12.17730 | 11180 ft | 339 kts | 169° |
| 2026-05-08 12:18 | 41.49810 | 12.18773 | 11753 ft | 349 kts | 150° |
| 2026-05-08 12:18 | 41.47903 | 12.20799 | 12500 ft | 354 kts | 131° |
| 2026-05-08 12:19 | 41.46593 | 12.23604 | 13265 ft | 361 kts | 112° |
| 2026-05-08 12:19 | 41.46076 | 12.26899 | 13943 ft | 370 kts | 92° |
| 2026-05-08 12:19 | 41.46472 | 12.30314 | 14583 ft | 377 kts | 71° |
| 2026-05-08 12:19 | 41.47513 | 12.33554 | 15262 ft | 383 kts | 65° |
| 2026-05-08 12:20 | 41.48670 | 12.36784 | 15978 ft | 389 kts | 65° |
| 2026-05-08 12:20 | 41.49810 | 12.40084 | 16743 ft | 395 kts | 68° |
| 2026-05-08 12:20 | 41.50568 | 12.43618 | 17458 ft | 400 kts | 82° |
| 2026-05-08 12:20 | 41.50678 | 12.46063 | 17905 ft | 402 kts | 94° |
| 2026-05-08 12:21 | 41.50316 | 12.49778 | 18534 ft | 405 kts | 102° |
| 2026-05-08 12:21 | 41.49639 | 12.53455 | 19097 ft | 410 kts | 107° |
| 2026-05-08 12:21 | 41.48800 | 12.57112 | 19689 ft | 415 kts | 109° |
| 2026-05-08 12:21 | 41.47895 | 12.60786 | 20295 ft | 419 kts | 110° |
| 2026-05-08 12:22 | 41.46975 | 12.64502 | 20902 ft | 424 kts | 109° |
| 2026-05-08 12:22 | 41.45783 | 12.69456 | 21707 ft | 431 kts | 109° |
| 2026-05-08 12:22 | 41.45176 | 12.72042 | 22127 ft | 434 kts | 109° |
| 2026-05-08 12:22 | 41.44286 | 12.75903 | 22730 ft | 439 kts | 108° |
| 2026-05-08 12:23 | 41.43396 | 12.79811 | 23329 ft | 443 kts | 108° |
| 2026-05-08 12:23 | 41.42508 | 12.83726 | 23863 ft | 448 kts | 108° |
| 2026-05-08 12:23 | 41.41601 | 12.87722 | 24330 ft | 454 kts | 108° |
| 2026-05-08 12:23 | 41.40682 | 12.91765 | 24810 ft | 459 kts | 108° |
| 2026-05-08 12:24 | 41.39751 | 12.95851 | 25271 ft | 463 kts | 108° |
| 2026-05-08 12:24 | 41.38808 | 12.99972 | 25762 ft | 468 kts | 108° |
| 2026-05-08 12:24 | 41.37851 | 13.04145 | 26234 ft | 473 kts | 108° |
| 2026-05-08 12:24 | 41.36886 | 13.08347 | 26704 ft | 477 kts | 108° |
| 2026-05-08 12:25 | 41.35909 | 13.12587 | 27181 ft | 482 kts | 109° |
| 2026-05-08 12:25 | 41.34920 | 13.16870 | 27664 ft | 486 kts | 109° |
| 2026-05-08 12:25 | 41.33923 | 13.21183 | 28142 ft | 490 kts | 109° |
| 2026-05-08 12:25 | 41.32917 | 13.25529 | 28651 ft | 494 kts | 109° |
| 2026-05-08 12:26 | 41.31900 | 13.29908 | 29103 ft | 497 kts | 109° |
| 2026-05-08 12:26 | 41.30875 | 13.34318 | 29537 ft | 502 kts | 109° |
| 2026-05-08 12:26 | 41.29836 | 13.38775 | 29980 ft | 506 kts | 109° |
| 2026-05-08 12:26 | 41.28791 | 13.43251 | 30343 ft | 510 kts | 109° |
| 2026-05-08 12:27 | 41.27732 | 13.47780 | 30657 ft | 515 kts | 109° |
| 2026-05-08 12:27 | 41.26662 | 13.52347 | 31015 ft | 518 kts | 109° |
| 2026-05-08 12:27 | 41.25583 | 13.56939 | 31338 ft | 523 kts | 109° |
| 2026-05-08 12:27 | 41.24494 | 13.61573 | 31642 ft | 527 kts | 108° |
| 2026-05-08 12:28 | 41.23404 | 13.66217 | 31938 ft | 530 kts | 108° |
| 2026-05-08 12:28 | 41.22294 | 13.70924 | 32244 ft | 534 kts | 108° |
| 2026-05-08 12:28 | 41.21179 | 13.75641 | 32531 ft | 537 kts | 108° |
| 2026-05-08 12:28 | 41.20069 | 13.80318 | 32766 ft | 541 kts | 108° |
| 2026-05-08 12:29 | 41.18936 | 13.85089 | 33037 ft | 544 kts | 108° |
| 2026-05-08 12:29 | 41.17827 | 13.89930 | 33312 ft | 547 kts | 105° |
| 2026-05-08 12:29 | 41.16765 | 13.94794 | 33640 ft | 549 kts | 105° |
| 2026-05-08 12:29 | 41.15695 | 13.99659 | 33955 ft | 550 kts | 105° |
| 2026-05-08 12:30 | 41.14597 | 14.04516 | 34276 ft | 550 kts | 106° |
| 2026-05-08 12:30 | 41.13470 | 14.09363 | 34657 ft | 548 kts | 106° |
| 2026-05-08 12:30 | 41.12330 | 14.14171 | 35016 ft | 547 kts | 107° |
| 2026-05-08 12:30 | 41.11178 | 14.18975 | 35345 ft | 546 kts | 107° |
| 2026-05-08 12:31 | 41.10022 | 14.23758 | 35693 ft | 545 kts | 107° |
| 2026-05-08 12:31 | 41.08860 | 14.28551 | 36030 ft | 544 kts | 107° |
| 2026-05-08 12:31 | 41.07703 | 14.33311 | 36351 ft | 543 kts | 107° |
| 2026-05-08 12:31 | 41.06542 | 14.38078 | 36649 ft | 543 kts | 107° |
| 2026-05-08 12:32 | 41.05378 | 14.42838 | 36967 ft | 542 kts | 107° |
| 2026-05-08 12:32 | 41.04213 | 14.47597 | 37261 ft | 542 kts | 107° |
| 2026-05-08 12:32 | 41.03050 | 14.52339 | 37534 ft | 542 kts | 107° |
| 2026-05-08 12:32 | 41.01884 | 14.57089 | 37830 ft | 541 kts | 108° |
| 2026-05-08 12:33 | 41.00718 | 14.61831 | 38062 ft | 541 kts | 108° |
| 2026-05-08 12:33 | 40.99554 | 14.66555 | 38337 ft | 540 kts | 108° |
| 2026-05-08 12:33 | 40.98402 | 14.71220 | 38578 ft | 539 kts | 108° |
| 2026-05-08 12:33 | 40.97237 | 14.75930 | 38733 ft | 539 kts | 108° |
| 2026-05-08 12:34 | 40.96068 | 14.80642 | 38905 ft | 539 kts | 108° |
| 2026-05-08 12:34 | 40.94897 | 14.85352 | 39111 ft | 538 kts | 108° |
| 2026-05-08 12:34 | 40.93729 | 14.90049 | 39332 ft | 537 kts | 108° |
| 2026-05-08 12:34 | 40.92556 | 14.94752 | 39525 ft | 537 kts | 108° |
| 2026-05-08 12:35 | 40.91387 | 14.99436 | 39719 ft | 536 kts | 108° |
| 2026-05-08 12:35 | 40.90212 | 15.04134 | 39924 ft | 535 kts | 108° |
| 2026-05-08 12:35 | 40.89043 | 15.08793 | 40107 ft | 535 kts | 108° |
| 2026-05-08 12:35 | 40.87870 | 15.13463 | 40266 ft | 535 kts | 108° |
| 2026-05-08 12:36 | 40.86697 | 15.18122 | 40434 ft | 535 kts | 108° |
| 2026-05-08 12:36 | 40.85535 | 15.22728 | 40626 ft | 534 kts | 108° |
| 2026-05-08 12:36 | 40.84361 | 15.27374 | 40814 ft | 533 kts | 108° |
| 2026-05-08 12:36 | 40.83186 | 15.32021 | 40949 ft | 534 kts | 108° |
| 2026-05-08 12:37 | 40.80828 | 15.41319 | 40974 ft | 534 kts | 108° |
| 2026-05-08 12:37 | 40.78464 | 15.50607 | 40977 ft | 533 kts | 108° |
| 2026-05-08 12:38 | 40.76094 | 15.59881 | 40970 ft | 532 kts | 109° |
| 2026-05-08 12:38 | 40.73724 | 15.69119 | 40973 ft | 532 kts | 109° |
| 2026-05-08 12:39 | 40.71345 | 15.78365 | 40968 ft | 532 kts | 109° |
| 2026-05-08 12:39 | 40.68957 | 15.87608 | 40968 ft | 532 kts | 109° |
| 2026-05-08 12:40 | 40.66566 | 15.96829 | 40966 ft | 532 kts | 109° |
| 2026-05-08 12:40 | 40.64183 | 16.05982 | 40962 ft | 531 kts | 109° |
| 2026-05-08 12:41 | 40.61732 | 16.15159 | 40947 ft | 530 kts | 113° |
| 2026-05-08 12:41 | 40.58330 | 16.23736 | 40951 ft | 528 kts | 121° |
| 2026-05-08 12:42 | 40.54637 | 16.32075 | 40978 ft | 526 kts | 122° |
| 2026-05-08 12:42 | 40.50903 | 16.40355 | 41004 ft | 526 kts | 122° |
| 2026-05-08 12:43 | 40.47176 | 16.48626 | 41031 ft | 526 kts | 122° |
| 2026-05-08 12:43 | 40.43453 | 16.56901 | 41046 ft | 526 kts | 122° |
| 2026-05-08 12:44 | 40.39758 | 16.65103 | 41046 ft | 526 kts | 122° |
| 2026-05-08 12:44 | 40.36022 | 16.73377 | 41049 ft | 526 kts | 122° |
| 2026-05-08 12:45 | 40.32281 | 16.81638 | 41019 ft | 526 kts | 122° |
| 2026-05-08 12:45 | 40.28539 | 16.89875 | 40992 ft | 526 kts | 122° |
| 2026-05-08 12:46 | 40.24786 | 16.98113 | 40964 ft | 526 kts | 122° |
| 2026-05-08 12:46 | 40.21023 | 17.06347 | 40937 ft | 527 kts | 122° |
| 2026-05-08 12:47 | 40.17257 | 17.14568 | 40941 ft | 527 kts | 122° |
| 2026-05-08 12:47 | 40.13480 | 17.22794 | 40944 ft | 527 kts | 122° |
| 2026-05-08 12:48 | 40.09698 | 17.31008 | 40942 ft | 527 kts | 122° |
| 2026-05-08 12:48 | 40.05930 | 17.39171 | 40942 ft | 527 kts | 122° |
| 2026-05-08 12:49 | 40.02138 | 17.47365 | 40941 ft | 527 kts | 122° |
| 2026-05-08 12:49 | 39.98338 | 17.55554 | 40944 ft | 527 kts | 123° |
| 2026-05-08 12:50 | 39.94531 | 17.63738 | 40955 ft | 528 kts | 123° |
| 2026-05-08 12:50 | 39.90718 | 17.71913 | 40948 ft | 528 kts | 123° |
| 2026-05-08 12:51 | 39.84997 | 17.84134 | 40949 ft | 529 kts | 123° |
| 2026-05-08 12:52 | 39.81161 | 17.92304 | 40952 ft | 529 kts | 123° |
| 2026-05-08 12:52 | 39.75399 | 18.04538 | 40952 ft | 529 kts | 123° |
| 2026-05-08 12:53 | 39.71541 | 18.12703 | 40954 ft | 529 kts | 123° |
| 2026-05-08 12:53 | 39.67679 | 18.20854 | 40959 ft | 530 kts | 123° |
| 2026-05-08 12:54 | 39.63826 | 18.28965 | 40955 ft | 530 kts | 123° |
| 2026-05-08 12:54 | 39.59952 | 18.37098 | 40955 ft | 530 kts | 123° |
| 2026-05-08 12:55 | 39.56070 | 18.45227 | 40961 ft | 530 kts | 123° |
| 2026-05-08 12:55 | 39.52186 | 18.53342 | 40959 ft | 530 kts | 123° |
| 2026-05-08 12:56 | 39.48289 | 18.61463 | 40962 ft | 530 kts | 123° |
| 2026-05-08 12:56 | 39.44415 | 18.69512 | 40964 ft | 530 kts | 123° |
| 2026-05-08 12:57 | 39.40511 | 18.77604 | 40966 ft | 530 kts | 123° |
| 2026-05-08 12:57 | 39.36600 | 18.85692 | 40965 ft | 530 kts | 123° |
| 2026-05-08 12:58 | 39.32688 | 18.93759 | 40966 ft | 530 kts | 123° |
| 2026-05-08 12:58 | 39.28438 | 19.01493 | 40971 ft | 526 kts | 135° |
| 2026-05-08 12:59 | 39.23415 | 19.08321 | 40976 ft | 523 kts | 136° |
| 2026-05-08 12:59 | 39.18285 | 19.14974 | 40968 ft | 522 kts | 137° |
| 2026-05-08 13:00 | 39.13181 | 19.21550 | 40985 ft | 521 kts | 137° |
| 2026-05-08 13:00 | 39.08066 | 19.28159 | 40963 ft | 521 kts | 137° |
| 2026-05-08 13:01 | 39.02950 | 19.34775 | 40979 ft | 520 kts | 137° |
| 2026-05-08 13:01 | 38.97847 | 19.41364 | 40979 ft | 520 kts | 137° |
| 2026-05-08 13:02 | 38.92738 | 19.47945 | 40983 ft | 519 kts | 137° |
| 2026-05-08 13:02 | 38.87630 | 19.54507 | 40989 ft | 519 kts | 137° |
| 2026-05-08 13:03 | 38.82526 | 19.61051 | 40992 ft | 519 kts | 137° |
| 2026-05-08 13:03 | 38.77443 | 19.67553 | 40991 ft | 519 kts | 138° |
| 2026-05-08 13:04 | 38.72323 | 19.74089 | 40994 ft | 519 kts | 138° |
| 2026-05-08 13:04 | 38.67198 | 19.80617 | 40999 ft | 520 kts | 138° |
| 2026-05-08 13:05 | 38.62063 | 19.87145 | 40999 ft | 520 kts | 138° |
| 2026-05-08 13:05 | 38.56926 | 19.93663 | 41002 ft | 520 kts | 138° |
| 2026-05-08 13:06 | 38.51778 | 20.00180 | 41002 ft | 521 kts | 138° |
| 2026-05-08 13:06 | 38.46630 | 20.06683 | 41010 ft | 521 kts | 138° |
| 2026-05-08 13:07 | 38.41473 | 20.13185 | 41010 ft | 521 kts | 139° |
| 2026-05-08 13:07 | 38.36341 | 20.19639 | 41014 ft | 521 kts | 139° |
| 2026-05-08 13:08 | 38.31173 | 20.26121 | 41017 ft | 521 kts | 139° |
| 2026-05-08 13:08 | 38.26879 | 20.31499 | 41019 ft | 521 kts | 139° |
| 2026-05-08 13:09 | 38.21709 | 20.37967 | 41018 ft | 521 kts | 139° |
| 2026-05-08 13:09 | 38.16541 | 20.44420 | 41017 ft | 521 kts | 139° |
| 2026-05-08 13:10 | 38.11363 | 20.50870 | 41018 ft | 520 kts | 139° |
| 2026-05-08 13:10 | 38.06130 | 20.57111 | 41020 ft | 519 kts | 141° |
| 2026-05-08 13:11 | 38.00763 | 20.63219 | 41027 ft | 518 kts | 141° |
| 2026-05-08 13:11 | 37.95402 | 20.69332 | 41032 ft | 518 kts | 141° |
| 2026-05-08 13:12 | 37.90056 | 20.75469 | 41029 ft | 518 kts | 141° |
| 2026-05-08 13:12 | 37.84724 | 20.81602 | 41023 ft | 517 kts | 141° |
| 2026-05-08 13:13 | 37.79393 | 20.87721 | 41019 ft | 517 kts | 141° |
| 2026-05-08 13:13 | 37.74076 | 20.93811 | 41019 ft | 516 kts | 141° |
| 2026-05-08 13:14 | 37.68754 | 20.99892 | 41016 ft | 515 kts | 141° |
| 2026-05-08 13:14 | 37.63467 | 21.05919 | 41024 ft | 514 kts | 141° |
| 2026-05-08 13:15 | 37.58159 | 21.11959 | 41032 ft | 514 kts | 141° |
| 2026-05-08 13:15 | 37.52852 | 21.17985 | 41037 ft | 513 kts | 141° |
| 2026-05-08 13:16 | 37.47544 | 21.24001 | 41044 ft | 513 kts | 141° |
| 2026-05-08 13:16 | 37.42237 | 21.30005 | 41044 ft | 513 kts | 142° |
| 2026-05-08 13:17 | 37.36926 | 21.35999 | 41059 ft | 512 kts | 142° |
| 2026-05-08 13:17 | 37.31614 | 21.41985 | 41042 ft | 512 kts | 142° |
| 2026-05-08 13:18 | 37.26299 | 21.47961 | 41051 ft | 512 kts | 142° |
| 2026-05-08 13:18 | 37.20987 | 21.53922 | 41059 ft | 513 kts | 142° |
| 2026-05-08 13:19 | 37.15668 | 21.59879 | 41055 ft | 513 kts | 142° |
| 2026-05-08 13:19 | 37.10342 | 21.65832 | 41064 ft | 513 kts | 142° |
| 2026-05-08 13:20 | 37.05014 | 21.71774 | 41075 ft | 513 kts | 142° |
| 2026-05-08 13:20 | 36.99680 | 21.77712 | 41076 ft | 513 kts | 142° |
| 2026-05-08 13:21 | 36.94338 | 21.83648 | 41077 ft | 513 kts | 142° |
| 2026-05-08 13:21 | 36.89028 | 21.89538 | 41077 ft | 513 kts | 142° |
| 2026-05-08 13:22 | 36.83673 | 21.95467 | 41081 ft | 514 kts | 142° |
| 2026-05-08 13:22 | 36.78310 | 22.01392 | 41085 ft | 515 kts | 142° |
| 2026-05-08 13:23 | 36.72975 | 22.07273 | 41087 ft | 515 kts | 142° |
| 2026-05-08 13:23 | 36.67561 | 22.13230 | 41087 ft | 516 kts | 142° |
| 2026-05-08 13:24 | 36.62209 | 22.19109 | 41090 ft | 517 kts | 142° |
| 2026-05-08 13:24 | 36.56808 | 22.25031 | 41090 ft | 517 kts | 142° |
| 2026-05-08 13:25 | 36.51394 | 22.30954 | 41085 ft | 517 kts | 142° |
| 2026-05-08 13:25 | 36.45986 | 22.36859 | 41083 ft | 518 kts | 142° |
| 2026-05-08 13:26 | 36.40564 | 22.42769 | 41094 ft | 518 kts | 142° |
| 2026-05-08 13:26 | 36.35177 | 22.48629 | 41088 ft | 518 kts | 142° |
| 2026-05-08 13:27 | 36.29757 | 22.54515 | 41086 ft | 518 kts | 142° |
| 2026-05-08 13:27 | 36.24330 | 22.60396 | 41084 ft | 518 kts | 142° |
| 2026-05-08 13:28 | 36.18889 | 22.66280 | 41088 ft | 518 kts | 143° |
| 2026-05-08 13:28 | 36.13454 | 22.72147 | 41087 ft | 518 kts | 143° |
| 2026-05-08 13:29 | 36.08043 | 22.77976 | 41089 ft | 519 kts | 143° |
| 2026-05-08 13:29 | 36.02590 | 22.83841 | 41085 ft | 519 kts | 143° |
| 2026-05-08 13:30 | 35.97128 | 22.89703 | 41087 ft | 520 kts | 143° |
| 2026-05-08 13:30 | 35.91668 | 22.95552 | 41094 ft | 520 kts | 143° |
| 2026-05-08 13:31 | 35.86192 | 23.01406 | 41094 ft | 521 kts | 143° |
| 2026-05-08 13:31 | 35.80734 | 23.07235 | 41093 ft | 522 kts | 143° |
| 2026-05-08 13:32 | 35.75244 | 23.13090 | 41097 ft | 522 kts | 143° |
| 2026-05-08 13:32 | 35.69741 | 23.18950 | 41092 ft | 522 kts | 143° |
| 2026-05-08 13:33 | 35.64235 | 23.24802 | 41099 ft | 523 kts | 143° |
| 2026-05-08 13:33 | 35.58757 | 23.30614 | 41095 ft | 523 kts | 143° |
| 2026-05-08 13:34 | 35.53240 | 23.36454 | 41098 ft | 523 kts | 143° |
| 2026-05-08 13:34 | 35.47721 | 23.42286 | 41099 ft | 523 kts | 143° |
| 2026-05-08 13:35 | 35.42203 | 23.48107 | 41106 ft | 523 kts | 143° |
| 2026-05-08 13:35 | 35.36674 | 23.53927 | 41109 ft | 523 kts | 143° |
| 2026-05-08 13:36 | 35.31150 | 23.59731 | 41111 ft | 523 kts | 143° |
| 2026-05-08 13:36 | 35.25616 | 23.65533 | 41113 ft | 523 kts | 143° |
| 2026-05-08 13:37 | 35.19637 | 23.70422 | 41123 ft | 514 kts | 155° |
| 2026-05-08 13:37 | 35.13349 | 23.74532 | 41123 ft | 511 kts | 157° |
| 2026-05-08 13:38 | 35.07054 | 23.78489 | 41124 ft | 511 kts | 157° |
| 2026-05-08 13:38 | 35.00729 | 23.82461 | 41127 ft | 511 kts | 157° |
| 2026-05-08 13:39 | 34.94422 | 23.86440 | 41125 ft | 511 kts | 157° |
| 2026-05-08 13:39 | 34.88098 | 23.90434 | 41130 ft | 511 kts | 157° |
| 2026-05-08 13:40 | 34.81783 | 23.94417 | 41128 ft | 511 kts | 157° |
| 2026-05-08 13:40 | 34.75465 | 23.98395 | 41127 ft | 511 kts | 157° |
| 2026-05-08 13:41 | 34.69145 | 24.02367 | 41127 ft | 511 kts | 157° |
| 2026-05-08 13:41 | 34.62822 | 24.06332 | 41131 ft | 511 kts | 157° |
| 2026-05-08 13:42 | 34.56505 | 24.10287 | 41133 ft | 511 kts | 157° |
| 2026-05-08 13:42 | 34.50184 | 24.14239 | 41132 ft | 511 kts | 157° |
| 2026-05-08 13:43 | 34.43854 | 24.18189 | 41140 ft | 511 kts | 157° |
| 2026-05-08 13:43 | 34.37578 | 24.22099 | 41147 ft | 511 kts | 157° |
| 2026-05-08 13:44 | 34.31254 | 24.26031 | 41144 ft | 511 kts | 157° |
| 2026-05-08 13:44 | 34.24932 | 24.29955 | 41140 ft | 511 kts | 157° |
| 2026-05-08 13:45 | 34.18591 | 24.33883 | 41143 ft | 511 kts | 157° |
| 2026-05-08 13:45 | 34.12261 | 24.37800 | 41136 ft | 511 kts | 157° |
| 2026-05-08 13:46 | 34.05925 | 24.41712 | 41140 ft | 511 kts | 157° |
| 2026-05-08 13:46 | 33.99775 | 24.45941 | 41147 ft | 517 kts | 146° |
| 2026-05-08 13:47 | 33.94231 | 24.51518 | 41137 ft | 522 kts | 141° |
| 2026-05-08 13:47 | 33.88820 | 24.57373 | 41141 ft | 523 kts | 140° |
| 2026-05-08 13:48 | 33.83417 | 24.63248 | 41142 ft | 523 kts | 140° |
| 2026-05-08 13:48 | 33.78022 | 24.69059 | 41138 ft | 523 kts | 141° |
| 2026-05-08 13:49 | 33.72595 | 24.74868 | 41143 ft | 522 kts | 141° |
| 2026-05-08 13:49 | 33.67164 | 24.80666 | 41145 ft | 522 kts | 141° |
| 2026-05-08 13:50 | 33.61737 | 24.86450 | 41140 ft | 521 kts | 141° |
| 2026-05-08 13:50 | 33.56320 | 24.92215 | 41144 ft | 521 kts | 140° |
| 2026-05-08 13:51 | 33.50898 | 24.97975 | 41143 ft | 520 kts | 140° |
| 2026-05-08 13:51 | 33.45476 | 25.03726 | 41146 ft | 520 kts | 140° |
| 2026-05-08 13:52 | 33.40061 | 25.09459 | 41148 ft | 520 kts | 140° |
| 2026-05-08 13:52 | 33.34634 | 25.15195 | 41148 ft | 519 kts | 140° |
| 2026-05-08 13:53 | 33.29258 | 25.20867 | 41143 ft | 519 kts | 140° |
| 2026-05-08 13:53 | 33.23845 | 25.26569 | 41146 ft | 519 kts | 140° |
| 2026-05-08 13:54 | 33.18429 | 25.32265 | 41142 ft | 519 kts | 140° |
| 2026-05-08 13:54 | 33.13008 | 25.37955 | 41141 ft | 518 kts | 140° |
| 2026-05-08 13:55 | 33.07591 | 25.43631 | 41141 ft | 518 kts | 140° |
| 2026-05-08 13:56 | 33.00375 | 25.51177 | 41137 ft | 518 kts | 140° |
| 2026-05-08 13:56 | 32.94945 | 25.56845 | 41135 ft | 518 kts | 141° |
| 2026-05-08 13:57 | 32.89519 | 25.62498 | 41134 ft | 518 kts | 141° |
| 2026-05-08 13:57 | 32.84095 | 25.68141 | 41131 ft | 518 kts | 141° |
| 2026-05-08 13:58 | 32.78669 | 25.73775 | 41145 ft | 518 kts | 141° |
| 2026-05-08 13:58 | 32.73277 | 25.79366 | 41143 ft | 518 kts | 141° |
| 2026-05-08 13:59 | 32.67843 | 25.84989 | 41137 ft | 518 kts | 141° |
| 2026-05-08 13:59 | 32.62412 | 25.90601 | 41141 ft | 518 kts | 141° |
| 2026-05-08 14:00 | 32.56976 | 25.96209 | 41137 ft | 518 kts | 141° |
| 2026-05-08 14:00 | 32.51531 | 26.01816 | 41141 ft | 518 kts | 141° |
| 2026-05-08 14:01 | 32.46090 | 26.07409 | 41136 ft | 518 kts | 141° |
| 2026-05-08 14:01 | 32.40645 | 26.12997 | 41143 ft | 518 kts | 141° |
| 2026-05-08 14:02 | 32.35189 | 26.18588 | 41136 ft | 518 kts | 141° |
| 2026-05-08 14:02 | 32.29730 | 26.24172 | 41138 ft | 518 kts | 141° |
| 2026-05-08 14:03 | 32.24311 | 26.29706 | 41139 ft | 519 kts | 141° |
| 2026-05-08 14:03 | 32.18813 | 26.35311 | 41142 ft | 519 kts | 141° |
| 2026-05-08 14:04 | 32.13382 | 26.40840 | 41140 ft | 519 kts | 141° |
| 2026-05-08 14:04 | 32.07908 | 26.46402 | 41137 ft | 519 kts | 141° |
| 2026-05-08 14:05 | 32.02420 | 26.51970 | 41142 ft | 520 kts | 141° |
| 2026-05-08 14:05 | 31.96933 | 26.57528 | 41141 ft | 520 kts | 141° |
| 2026-05-08 14:06 | 31.91440 | 26.63083 | 41143 ft | 520 kts | 141° |
| 2026-05-08 14:06 | 31.85975 | 26.68600 | 41145 ft | 520 kts | 141° |
| 2026-05-08 14:07 | 31.80468 | 26.74151 | 41146 ft | 520 kts | 141° |
| 2026-05-08 14:07 | 31.74974 | 26.79681 | 41146 ft | 520 kts | 141° |
| 2026-05-08 14:08 | 31.69474 | 26.85208 | 41148 ft | 520 kts | 141° |
| 2026-05-08 14:08 | 31.63982 | 26.90717 | 41147 ft | 519 kts | 141° |
| 2026-05-08 14:09 | 31.58478 | 26.96229 | 41150 ft | 519 kts | 141° |
| 2026-05-08 14:09 | 31.53014 | 27.01692 | 41162 ft | 519 kts | 141° |
| 2026-05-08 14:10 | 31.47508 | 27.07188 | 41166 ft | 519 kts | 141° |
| 2026-05-08 14:10 | 31.42010 | 27.12668 | 41177 ft | 519 kts | 141° |
| 2026-05-08 14:11 | 31.36508 | 27.18142 | 41184 ft | 519 kts | 141° |
| 2026-05-08 14:11 | 31.31368 | 27.24068 | 41184 ft | 521 kts | 127° |
| 2026-05-08 14:12 | 31.27141 | 27.30974 | 41184 ft | 523 kts | 124° |
| 2026-05-08 14:12 | 31.23104 | 27.38004 | 41175 ft | 524 kts | 123° |
| 2026-05-08 14:13 | 31.19048 | 27.45084 | 41163 ft | 524 kts | 124° |
| 2026-05-08 14:13 | 31.14966 | 27.52139 | 41152 ft | 524 kts | 124° |
| 2026-05-08 14:14 | 31.10853 | 27.59164 | 41141 ft | 524 kts | 124° |
| 2026-05-08 14:14 | 31.06677 | 27.66144 | 41141 ft | 524 kts | 125° |
| 2026-05-08 14:15 | 31.02502 | 27.73096 | 41139 ft | 524 kts | 125° |
| 2026-05-08 14:15 | 30.98328 | 27.80056 | 41134 ft | 524 kts | 125° |
| 2026-05-08 14:16 | 30.94153 | 27.87018 | 41130 ft | 524 kts | 124° |
| 2026-05-08 14:16 | 30.89975 | 27.93976 | 41127 ft | 524 kts | 125° |
| 2026-05-08 14:17 | 30.85795 | 28.00923 | 41123 ft | 524 kts | 125° |
| 2026-05-08 14:17 | 30.81631 | 28.07832 | 41122 ft | 524 kts | 125° |
| 2026-05-08 14:18 | 30.77435 | 28.14782 | 41120 ft | 525 kts | 125° |
| 2026-05-08 14:18 | 30.73237 | 28.21720 | 41119 ft | 525 kts | 124° |
| 2026-05-08 14:19 | 30.69046 | 28.28638 | 41116 ft | 525 kts | 124° |
| 2026-05-08 14:19 | 30.64831 | 28.35583 | 41115 ft | 525 kts | 124° |
| 2026-05-08 14:20 | 30.60615 | 28.42518 | 41106 ft | 525 kts | 124° |
| 2026-05-08 14:20 | 30.56401 | 28.49436 | 41099 ft | 526 kts | 124° |
| 2026-05-08 14:21 | 30.52178 | 28.56356 | 41095 ft | 526 kts | 124° |
| 2026-05-08 14:21 | 30.47953 | 28.63271 | 41092 ft | 526 kts | 124° |
| 2026-05-08 14:22 | 30.43714 | 28.70194 | 41086 ft | 526 kts | 124° |
| 2026-05-08 14:22 | 30.39475 | 28.77106 | 41084 ft | 526 kts | 124° |
| 2026-05-08 14:23 | 30.35234 | 28.84007 | 41080 ft | 526 kts | 124° |
| 2026-05-08 14:23 | 30.31014 | 28.90864 | 41076 ft | 526 kts | 124° |
| 2026-05-08 14:24 | 30.26763 | 28.97759 | 41075 ft | 526 kts | 124° |
| 2026-05-08 14:24 | 30.22511 | 29.04644 | 41069 ft | 526 kts | 124° |
| 2026-05-08 14:25 | 30.18252 | 29.11532 | 41064 ft | 526 kts | 124° |
| 2026-05-08 14:25 | 30.13997 | 29.18427 | 41062 ft | 526 kts | 124° |
| 2026-05-08 14:26 | 30.09778 | 29.25313 | 41059 ft | 525 kts | 123° |
| 2026-05-08 14:26 | 30.05608 | 29.32248 | 41054 ft | 525 kts | 123° |
| 2026-05-08 14:27 | 30.01447 | 29.39165 | 41054 ft | 525 kts | 123° |
| 2026-05-08 14:27 | 29.97266 | 29.46077 | 41059 ft | 525 kts | 123° |
| 2026-05-08 14:28 | 29.93082 | 29.52972 | 41053 ft | 524 kts | 123° |
| 2026-05-08 14:28 | 29.88927 | 29.59806 | 41051 ft | 524 kts | 123° |
| 2026-05-08 14:29 | 29.84735 | 29.66690 | 41054 ft | 524 kts | 123° |
| 2026-05-08 14:29 | 29.80536 | 29.73574 | 41052 ft | 524 kts | 123° |
| 2026-05-08 14:30 | 29.76344 | 29.80433 | 41049 ft | 524 kts | 123° |
| 2026-05-08 14:30 | 29.72148 | 29.87289 | 41054 ft | 524 kts | 123° |
| 2026-05-08 14:31 | 29.67944 | 29.94146 | 41049 ft | 524 kts | 123° |
| 2026-05-08 14:31 | 29.63742 | 30.00990 | 41046 ft | 524 kts | 123° |
| 2026-05-08 14:32 | 29.57455 | 30.11207 | 41047 ft | 524 kts | 123° |
| 2026-05-08 14:32 | 29.53240 | 30.18041 | 41046 ft | 524 kts | 123° |
| 2026-05-08 14:33 | 29.49025 | 30.24867 | 41044 ft | 524 kts | 123° |
| 2026-05-08 14:33 | 29.44801 | 30.31694 | 41043 ft | 524 kts | 123° |
| 2026-05-08 14:34 | 29.40544 | 30.38483 | 41030 ft | 525 kts | 127° |
| 2026-05-08 14:34 | 29.35647 | 30.44703 | 41045 ft | 525 kts | 132° |
| 2026-05-08 14:35 | 29.30594 | 30.50750 | 41040 ft | 524 kts | 133° |
| 2026-05-08 14:35 | 29.25528 | 30.56750 | 41038 ft | 524 kts | 133° |
| 2026-05-08 14:36 | 29.20459 | 30.62761 | 41043 ft | 524 kts | 133° |
| 2026-05-08 14:36 | 29.15432 | 30.68730 | 41042 ft | 524 kts | 133° |
| 2026-05-08 14:37 | 29.10379 | 30.74726 | 41042 ft | 524 kts | 133° |
| 2026-05-08 14:37 | 29.05318 | 30.80724 | 41042 ft | 524 kts | 133° |
| 2026-05-08 14:38 | 29.00250 | 30.86719 | 41043 ft | 524 kts | 133° |
| 2026-05-08 14:38 | 28.95180 | 30.92705 | 41044 ft | 524 kts | 133° |
| 2026-05-08 14:39 | 28.90114 | 30.98679 | 41045 ft | 524 kts | 133° |
| 2026-05-08 14:39 | 28.85041 | 31.04652 | 41041 ft | 524 kts | 133° |
| 2026-05-08 14:40 | 28.80006 | 31.10573 | 41041 ft | 523 kts | 133° |
| 2026-05-08 14:40 | 28.74928 | 31.16535 | 41030 ft | 524 kts | 133° |
| 2026-05-08 14:41 | 28.69853 | 31.22485 | 41034 ft | 524 kts | 133° |
| 2026-05-08 14:41 | 28.65690 | 31.27569 | 41036 ft | 523 kts | 130° |
| 2026-05-08 14:42 | 28.60876 | 31.33725 | 41029 ft | 524 kts | 130° |
| 2026-05-08 14:42 | 28.56027 | 31.39912 | 41036 ft | 524 kts | 130° |
| 2026-05-08 14:43 | 28.51147 | 31.46068 | 41036 ft | 524 kts | 130° |
| 2026-05-08 14:43 | 28.46243 | 31.52216 | 41035 ft | 524 kts | 130° |
| 2026-05-08 14:44 | 28.41340 | 31.58349 | 41029 ft | 524 kts | 130° |
| 2026-05-08 14:44 | 28.36432 | 31.64483 | 41026 ft | 524 kts | 131° |
| 2026-05-08 14:45 | 28.31520 | 31.70614 | 41026 ft | 524 kts | 131° |
| 2026-05-08 14:45 | 28.26651 | 31.76683 | 41019 ft | 523 kts | 131° |
| 2026-05-08 14:46 | 28.21742 | 31.82793 | 41014 ft | 523 kts | 131° |
| 2026-05-08 14:46 | 28.16833 | 31.88893 | 41008 ft | 523 kts | 131° |
| 2026-05-08 14:47 | 28.11926 | 31.94982 | 41008 ft | 523 kts | 131° |
| 2026-05-08 14:47 | 28.07015 | 32.01067 | 41003 ft | 523 kts | 131° |
| 2026-05-08 14:48 | 28.02569 | 32.07546 | 40994 ft | 520 kts | 118° |
| 2026-05-08 14:48 | 27.98989 | 32.14659 | 40982 ft | 522 kts | 116° |
| 2026-05-08 14:49 | 27.95537 | 32.21905 | 40968 ft | 522 kts | 115° |
| 2026-05-08 14:49 | 27.92115 | 32.29086 | 40961 ft | 522 kts | 116° |
| 2026-05-08 14:50 | 27.88641 | 32.36300 | 40953 ft | 522 kts | 116° |
| 2026-05-08 14:50 | 27.85150 | 32.43509 | 40940 ft | 522 kts | 116° |
| 2026-05-08 14:51 | 27.81656 | 32.50705 | 40930 ft | 522 kts | 116° |
| 2026-05-08 14:51 | 27.78156 | 32.57904 | 40932 ft | 522 kts | 116° |
| 2026-05-08 14:52 | 27.72897 | 32.68704 | 40928 ft | 523 kts | 116° |
| 2026-05-08 14:53 | 27.69414 | 32.75840 | 40926 ft | 523 kts | 116° |
| 2026-05-08 14:53 | 27.65824 | 32.82981 | 40920 ft | 523 kts | 120° |
| 2026-05-08 14:54 | 27.62185 | 32.90081 | 40917 ft | 523 kts | 119° |
| 2026-05-08 14:54 | 27.58616 | 32.97230 | 40914 ft | 523 kts | 118° |
| 2026-05-08 14:55 | 27.55084 | 33.04408 | 40914 ft | 523 kts | 118° |
| 2026-05-08 14:55 | 27.51583 | 33.11538 | 40913 ft | 523 kts | 118° |
| 2026-05-08 14:56 | 27.48054 | 33.18705 | 40918 ft | 523 kts | 118° |
| 2026-05-08 14:56 | 27.44518 | 33.25865 | 40913 ft | 523 kts | 118° |
| 2026-05-08 14:57 | 27.40975 | 33.33028 | 40911 ft | 523 kts | 118° |
| 2026-05-08 14:57 | 27.37424 | 33.40197 | 40911 ft | 524 kts | 118° |
| 2026-05-08 14:58 | 27.33879 | 33.47347 | 40910 ft | 524 kts | 118° |
| 2026-05-08 14:58 | 27.30318 | 33.54501 | 40912 ft | 524 kts | 118° |
| 2026-05-08 14:59 | 27.26758 | 33.61644 | 40909 ft | 524 kts | 118° |
| 2026-05-08 14:59 | 27.21412 | 33.72355 | 40909 ft | 524 kts | 118° |
| 2026-05-08 15:00 | 27.17916 | 33.79564 | 40911 ft | 524 kts | 113° |
| 2026-05-08 15:00 | 27.15090 | 33.87092 | 40909 ft | 523 kts | 111° |
| 2026-05-08 15:01 | 27.12411 | 33.94638 | 40906 ft | 523 kts | 110° |
| 2026-05-08 15:01 | 27.09726 | 34.02243 | 40899 ft | 523 kts | 110° |
| 2026-05-08 15:02 | 27.07028 | 34.09835 | 40891 ft | 523 kts | 111° |
| 2026-05-08 15:02 | 27.04321 | 34.17410 | 40880 ft | 524 kts | 111° |
| 2026-05-08 15:03 | 27.01604 | 34.24995 | 40883 ft | 524 kts | 111° |
| 2026-05-08 15:03 | 26.98885 | 34.32572 | 40878 ft | 524 kts | 111° |
| 2026-05-08 15:04 | 26.96107 | 34.40073 | 40872 ft | 524 kts | 113° |
| 2026-05-08 15:04 | 26.93134 | 34.47523 | 40875 ft | 524 kts | 113° |
| 2026-05-08 15:05 | 26.90145 | 34.54979 | 40867 ft | 524 kts | 113° |
| 2026-05-08 15:05 | 26.87182 | 34.62449 | 40865 ft | 524 kts | 113° |
| 2026-05-08 15:06 | 26.84230 | 34.69925 | 40864 ft | 525 kts | 113° |
| 2026-05-08 15:06 | 26.81268 | 34.77416 | 40866 ft | 525 kts | 113° |
| 2026-05-08 15:07 | 26.78325 | 34.84843 | 40861 ft | 525 kts | 113° |
| 2026-05-08 15:07 | 26.75356 | 34.92318 | 40863 ft | 526 kts | 113° |
| 2026-05-08 15:08 | 26.72882 | 34.98539 | 40860 ft | 526 kts | 114° |
| 2026-05-08 15:08 | 26.69417 | 35.07232 | 40858 ft | 526 kts | 114° |
| 2026-05-08 15:09 | 26.66432 | 35.14707 | 40856 ft | 526 kts | 114° |
| 2026-05-08 15:09 | 26.63443 | 35.22178 | 40856 ft | 527 kts | 114° |
| 2026-05-08 15:10 | 26.60449 | 35.29650 | 40862 ft | 527 kts | 114° |
| 2026-05-08 15:10 | 26.57448 | 35.37122 | 40858 ft | 527 kts | 114° |
| 2026-05-08 15:11 | 26.54456 | 35.44560 | 40855 ft | 527 kts | 114° |
| 2026-05-08 15:11 | 26.51447 | 35.52026 | 40853 ft | 527 kts | 114° |
| 2026-05-08 15:12 | 26.48431 | 35.59496 | 40857 ft | 528 kts | 114° |
| 2026-05-08 15:12 | 26.45420 | 35.66942 | 40851 ft | 528 kts | 115° |
| 2026-05-08 15:13 | 26.42688 | 35.73684 | 40852 ft | 528 kts | 115° |
| 2026-05-08 15:13 | 26.39660 | 35.81145 | 40850 ft | 528 kts | 115° |
| 2026-05-08 15:14 | 26.36625 | 35.88611 | 40854 ft | 528 kts | 115° |
| 2026-05-08 15:14 | 26.33583 | 35.96078 | 40848 ft | 529 kts | 115° |
| 2026-05-08 15:15 | 26.30539 | 36.03539 | 40847 ft | 529 kts | 115° |
| 2026-05-08 15:15 | 26.27490 | 36.10999 | 40855 ft | 529 kts | 115° |
| 2026-05-08 15:16 | 26.24435 | 36.18458 | 40849 ft | 529 kts | 115° |
| 2026-05-08 15:16 | 26.21378 | 36.25909 | 40853 ft | 529 kts | 115° |
| 2026-05-08 15:17 | 26.18313 | 36.33368 | 40851 ft | 529 kts | 115° |
| 2026-05-08 15:17 | 26.15243 | 36.40824 | 40848 ft | 530 kts | 115° |
| 2026-05-08 15:18 | 26.12172 | 36.48269 | 40867 ft | 530 kts | 116° |
| 2026-05-08 15:18 | 26.09107 | 36.55688 | 40862 ft | 530 kts | 116° |
| 2026-05-08 15:19 | 26.06024 | 36.63136 | 40847 ft | 530 kts | 116° |
| 2026-05-08 15:19 | 26.02959 | 36.70528 | 40856 ft | 530 kts | 116° |
| 2026-05-08 15:20 | 25.99874 | 36.77956 | 40850 ft | 530 kts | 116° |
| 2026-05-08 15:20 | 25.96783 | 36.85386 | 40850 ft | 530 kts | 116° |
| 2026-05-08 15:21 | 25.93685 | 36.92818 | 40854 ft | 530 kts | 116° |
| 2026-05-08 15:21 | 25.90586 | 37.00240 | 40853 ft | 529 kts | 116° |
| 2026-05-08 15:22 | 25.87483 | 37.07659 | 40858 ft | 529 kts | 116° |
| 2026-05-08 15:22 | 25.84377 | 37.15072 | 40862 ft | 529 kts | 116° |
| 2026-05-08 15:23 | 25.81287 | 37.22433 | 40862 ft | 529 kts | 116° |
| 2026-05-08 15:23 | 25.78047 | 37.29769 | 40869 ft | 528 kts | 120° |
| 2026-05-08 15:24 | 25.74432 | 37.36865 | 40868 ft | 527 kts | 122° |
| 2026-05-08 15:24 | 25.70787 | 37.43931 | 40877 ft | 527 kts | 122° |
| 2026-05-08 15:25 | 25.67198 | 37.51030 | 40874 ft | 527 kts | 121° |
| 2026-05-08 15:25 | 25.63639 | 37.58143 | 40874 ft | 527 kts | 121° |
| 2026-05-08 15:26 | 25.60119 | 37.65184 | 40870 ft | 526 kts | 121° |
| 2026-05-08 15:26 | 25.56566 | 37.72274 | 40867 ft | 526 kts | 121° |
| 2026-05-08 15:27 | 25.53004 | 37.79364 | 40863 ft | 526 kts | 121° |
| 2026-05-08 15:27 | 25.49447 | 37.86433 | 40858 ft | 526 kts | 122° |
| 2026-05-08 15:28 | 25.45880 | 37.93510 | 40851 ft | 526 kts | 122° |
| 2026-05-08 15:28 | 25.42915 | 37.99386 | 40843 ft | 525 kts | 122° |
| 2026-05-08 15:29 | 25.39348 | 38.06442 | 40690 ft | 525 kts | 122° |
| 2026-05-08 15:29 | 25.37567 | 38.09962 | 40448 ft | 525 kts | 122° |
| 2026-05-08 15:29 | 25.35784 | 38.13483 | 40205 ft | 525 kts | 122° |
| 2026-05-08 15:30 | 25.34003 | 38.16996 | 39961 ft | 525 kts | 121° |
| 2026-05-08 15:30 | 25.32215 | 38.20521 | 39706 ft | 524 kts | 121° |
| 2026-05-08 15:30 | 25.30435 | 38.24027 | 39131 ft | 524 kts | 121° |
| 2026-05-08 15:30 | 25.28649 | 38.27542 | 38477 ft | 525 kts | 121° |
| 2026-05-08 15:31 | 25.26862 | 38.31054 | 37731 ft | 525 kts | 121° |
| 2026-05-08 15:31 | 25.25071 | 38.34573 | 37059 ft | 525 kts | 120° |
| 2026-05-08 15:31 | 25.23281 | 38.38090 | 36387 ft | 525 kts | 120° |
| 2026-05-08 15:31 | 25.21511 | 38.41562 | 35714 ft | 525 kts | 120° |
| 2026-05-08 15:32 | 25.19722 | 38.45072 | 35018 ft | 526 kts | 119° |
| 2026-05-08 15:32 | 25.17919 | 38.48606 | 34263 ft | 529 kts | 119° |
| 2026-05-08 15:32 | 25.16104 | 38.52160 | 33401 ft | 533 kts | 118° |
| 2026-05-08 15:32 | 25.14276 | 38.55739 | 32519 ft | 536 kts | 118° |
| 2026-05-08 15:33 | 25.12440 | 38.59322 | 31644 ft | 538 kts | 118° |
| 2026-05-08 15:33 | 25.10592 | 38.62923 | 30743 ft | 540 kts | 117° |
| 2026-05-08 15:33 | 25.08739 | 38.66532 | 30000 ft | 540 kts | 117° |
| 2026-05-08 15:33 | 25.06898 | 38.70119 | 29293 ft | 536 kts | 117° |
| 2026-05-08 15:34 | 25.05067 | 38.73689 | 28638 ft | 531 kts | 117° |
| 2026-05-08 15:34 | 25.03257 | 38.77214 | 28001 ft | 526 kts | 118° |
| 2026-05-08 15:34 | 25.01459 | 38.80711 | 27359 ft | 521 kts | 118° |
| 2026-05-08 15:34 | 24.99703 | 38.84123 | 26721 ft | 516 kts | 118° |
| 2026-05-08 15:35 | 24.97938 | 38.87550 | 26095 ft | 511 kts | 119° |
| 2026-05-08 15:35 | 24.96288 | 38.90994 | 25481 ft | 506 kts | 112° |
| 2026-05-08 15:35 | 24.95165 | 38.94521 | 24896 ft | 500 kts | 106° |
| 2026-05-08 15:35 | 24.94183 | 38.98182 | 24287 ft | 495 kts | 105° |
| 2026-05-08 15:36 | 24.93223 | 39.01804 | 23677 ft | 491 kts | 106° |
| 2026-05-08 15:36 | 24.92263 | 39.05402 | 23022 ft | 486 kts | 106° |
| 2026-05-08 15:36 | 24.91310 | 39.08947 | 22437 ft | 479 kts | 107° |
| 2026-05-08 15:36 | 24.90385 | 39.12373 | 22275 ft | 447 kts | 107° |
| 2026-05-08 15:37 | 24.89532 | 39.15525 | 22132 ft | 412 kts | 107° |
| 2026-05-08 15:37 | 24.88743 | 39.18439 | 21982 ft | 383 kts | 107° |
| 2026-05-08 15:37 | 24.88006 | 39.21155 | 21859 ft | 361 kts | 107° |
| 2026-05-08 15:37 | 24.87295 | 39.23772 | 21688 ft | 352 kts | 107° |
| 2026-05-08 15:38 | 24.86602 | 39.26318 | 21535 ft | 343 kts | 107° |
| 2026-05-08 15:38 | 24.85922 | 39.28815 | 21377 ft | 337 kts | 107° |
| 2026-05-08 15:38 | 24.85255 | 39.31264 | 21238 ft | 330 kts | 108° |
| 2026-05-08 15:38 | 24.84605 | 39.33650 | 21094 ft | 323 kts | 108° |
| 2026-05-08 15:39 | 24.83961 | 39.36018 | 20784 ft | 323 kts | 108° |
| 2026-05-08 15:39 | 24.83313 | 39.38394 | 20489 ft | 322 kts | 108° |
| 2026-05-08 15:39 | 24.82665 | 39.40761 | 20192 ft | 322 kts | 108° |
| 2026-05-08 15:39 | 24.82019 | 39.43121 | 19902 ft | 321 kts | 108° |
| 2026-05-08 15:40 | 24.81378 | 39.45465 | 19613 ft | 320 kts | 108° |
| 2026-05-08 15:40 | 24.80743 | 39.47783 | 19333 ft | 320 kts | 109° |
| 2026-05-08 15:40 | 24.80099 | 39.50131 | 19035 ft | 320 kts | 109° |
| 2026-05-08 15:40 | 24.79451 | 39.52495 | 18758 ft | 319 kts | 109° |
| 2026-05-08 15:41 | 24.78819 | 39.54798 | 18480 ft | 319 kts | 109° |
| 2026-05-08 15:41 | 24.78178 | 39.57134 | 18183 ft | 318 kts | 109° |
| 2026-05-08 15:41 | 24.77540 | 39.59457 | 17877 ft | 318 kts | 109° |
| 2026-05-08 15:41 | 24.76900 | 39.61785 | 17588 ft | 316 kts | 109° |
| 2026-05-08 15:42 | 24.76268 | 39.64087 | 17306 ft | 314 kts | 109° |
| 2026-05-08 15:42 | 24.75639 | 39.66374 | 17018 ft | 312 kts | 110° |
| 2026-05-08 15:42 | 24.75012 | 39.68650 | 16758 ft | 310 kts | 110° |
| 2026-05-08 15:42 | 24.74386 | 39.70921 | 16461 ft | 308 kts | 110° |
| 2026-05-08 15:43 | 24.73769 | 39.73159 | 16191 ft | 307 kts | 110° |
| 2026-05-08 15:43 | 24.73129 | 39.75409 | 15907 ft | 305 kts | 113° |
| 2026-05-08 15:43 | 24.72108 | 39.77391 | 15641 ft | 294 kts | 136° |
| 2026-05-08 15:43 | 24.70494 | 39.78665 | 15392 ft | 282 kts | 162° |
| 2026-05-08 15:44 | 24.68633 | 39.79223 | 15141 ft | 276 kts | 173° |
| 2026-05-08 15:44 | 24.66745 | 39.79604 | 14890 ft | 273 kts | 173° |
| 2026-05-08 15:44 | 24.64881 | 39.79978 | 14698 ft | 269 kts | 173° |
| 2026-05-08 15:44 | 24.63057 | 39.80354 | 14490 ft | 266 kts | 173° |
| 2026-05-08 15:45 | 24.61260 | 39.80728 | 14255 ft | 265 kts | 173° |
| 2026-05-08 15:45 | 24.59445 | 39.81111 | 14098 ft | 258 kts | 172° |
| 2026-05-08 15:45 | 24.57712 | 39.81478 | 13975 ft | 250 kts | 172° |
| 2026-05-08 15:45 | 24.56019 | 39.81838 | 13796 ft | 247 kts | 172° |
| 2026-05-08 15:46 | 24.54335 | 39.82197 | 13538 ft | 246 kts | 172° |
| 2026-05-08 15:46 | 24.52686 | 39.82544 | 13287 ft | 244 kts | 172° |
| 2026-05-08 15:46 | 24.51008 | 39.82899 | 13085 ft | 242 kts | 172° |
| 2026-05-08 15:46 | 24.49383 | 39.83242 | 12860 ft | 240 kts | 172° |
| 2026-05-08 15:47 | 24.47745 | 39.83587 | 12629 ft | 239 kts | 172° |
| 2026-05-08 15:47 | 24.46120 | 39.83931 | 12415 ft | 237 kts | 172° |
| 2026-05-08 15:47 | 24.44513 | 39.84272 | 12190 ft | 235 kts | 172° |
| 2026-05-08 15:47 | 24.42898 | 39.84614 | 11966 ft | 234 kts | 172° |
| 2026-05-08 15:48 | 24.39727 | 39.85287 | 11521 ft | 230 kts | 172° |
| 2026-05-08 15:48 | 24.38156 | 39.85623 | 11301 ft | 229 kts | 172° |
| 2026-05-08 15:48 | 24.36595 | 39.85951 | 11090 ft | 227 kts | 172° |
| 2026-05-08 15:49 | 24.35051 | 39.86276 | 10860 ft | 226 kts | 172° |
| 2026-05-08 15:49 | 24.33510 | 39.86600 | 10671 ft | 225 kts | 172° |
| 2026-05-08 15:49 | 24.31990 | 39.86920 | 10445 ft | 224 kts | 172° |
| 2026-05-08 15:49 | 24.30465 | 39.87241 | 10226 ft | 223 kts | 172° |
| 2026-05-08 15:50 | 24.28947 | 39.87569 | 10029 ft | 222 kts | 172° |
| 2026-05-08 15:50 | 24.27426 | 39.87887 | 9822 ft | 228 kts | 172° |
| 2026-05-08 15:50 | 24.25827 | 39.88220 | 9699 ft | 236 kts | 172° |
| 2026-05-08 15:50 | 24.24243 | 39.88553 | 9595 ft | 227 kts | 172° |
| 2026-05-08 15:51 | 24.22685 | 39.88670 | 9257 ft | 226 kts | 189° |
| 2026-05-08 15:51 | 24.21224 | 39.88051 | 8930 ft | 229 kts | 217° |
| 2026-05-08 15:51 | 24.20222 | 39.86716 | 8691 ft | 229 kts | 245° |
| 2026-05-08 15:51 | 24.19785 | 39.85066 | 8461 ft | 231 kts | 257° |
| 2026-05-08 15:52 | 24.19499 | 39.83332 | 8245 ft | 230 kts | 258° |
| 2026-05-08 15:52 | 24.19248 | 39.81603 | 8014 ft | 230 kts | 262° |
| 2026-05-08 15:52 | 24.19494 | 39.79878 | 7748 ft | 235 kts | 295° |
| 2026-05-08 15:52 | 24.20659 | 39.78619 | 7447 ft | 242 kts | 328° |
| 2026-05-08 15:53 | 24.22228 | 39.77927 | 7220 ft | 244 kts | 340° |
| 2026-05-08 15:53 | 24.23872 | 39.77496 | 7202 ft | 239 kts | 345° |
| 2026-05-08 15:53 | 24.25487 | 39.77169 | 7216 ft | 234 kts | 346° |
| 2026-05-08 15:53 | 24.27079 | 39.76843 | 7147 ft | 232 kts | 345° |
| 2026-05-08 15:54 | 24.28660 | 39.76505 | 6908 ft | 231 kts | 345° |
| 2026-05-08 15:54 | 24.30240 | 39.76166 | 6596 ft | 230 kts | 344° |
| 2026-05-08 15:54 | 24.31789 | 39.75836 | 6239 ft | 228 kts | 345° |
| 2026-05-08 15:54 | 24.33338 | 39.75507 | 5911 ft | 225 kts | 345° |
| 2026-05-08 15:55 | 24.34875 | 39.75181 | 5617 ft | 224 kts | 345° |
| 2026-05-08 15:55 | 24.37898 | 39.74539 | 5052 ft | 217 kts | 345° |
| 2026-05-08 15:55 | 24.39364 | 39.74228 | 4790 ft | 211 kts | 344° |
| 2026-05-08 15:56 | 24.40765 | 39.73931 | 4523 ft | 197 kts | 344° |
| 2026-05-08 15:56 | 24.42062 | 39.73654 | 4259 ft | 182 kts | 343° |
| 2026-05-08 15:56 | 24.43262 | 39.73400 | 4056 ft | 169 kts | 343° |
| 2026-05-08 15:56 | 24.44368 | 39.73164 | 3854 ft | 156 kts | 343° |
| 2026-05-08 15:57 | 24.45399 | 39.72944 | 3666 ft | 145 kts | 343° |
| 2026-05-08 15:57 | 24.46362 | 39.72739 | 3494 ft | 139 kts | 342° |
| 2026-05-08 15:57 | 24.47316 | 39.72534 | 3331 ft | 141 kts | 341° |
| 2026-05-08 15:57 | 24.48285 | 39.72326 | 3173 ft | 143 kts | 342° |
| 2026-05-08 15:58 | 24.49247 | 39.72122 | 2984 ft | 141 kts | 342° |
| 2026-05-08 15:58 | 24.50207 | 39.71916 | 2815 ft | 141 kts | 344° |
| 2026-05-08 15:58 | 24.51164 | 39.71714 | 2627 ft | 139 kts | 343° |
| 2026-05-08 15:58 | 24.52116 | 39.71517 | 2453 ft | 139 kts | 343° |
| 2026-05-08 15:59 | 24.53066 | 39.71312 | 2254 ft | 140 kts | 340° |
| 2026-05-08 15:59 | 24.54020 | 39.71102 | 2144 ft | 140 kts | 342° |
| 2026-05-08 15:59 | 24.54922 | 39.70906 | 2119 ft | 115 kts | 349° |
| 2026-05-08 15:59 | 24.55595 | 39.70768 | 2115 ft | 81 kts | 349° |
| 2026-05-08 16:00 | 24.56027 | 39.70678 | 2118 ft | 39 kts | 349° |
| 2026-05-08 16:00 | 24.56262 | 39.70626 | 2120 ft | 33 kts | 349° |
| 2026-05-08 16:00 | 24.56442 | 39.70601 | 2120 ft | 8 kts | 4° |
| 2026-05-08 16:00 | 24.56510 | 39.70614 | 2120 ft | 11 kts | 14° |
| 2026-05-08 16:01 | 24.56597 | 39.70641 | 2118 ft | 15 kts | 17° |
| 2026-05-08 16:01 | 24.56641 | 39.70659 | 2116 ft | 7 kts | 27° |
| 2026-05-08 16:01 | 24.56656 | 39.70715 | 2114 ft | 9 kts | 111° |
| 2026-05-08 16:01 | 24.56597 | 39.70748 | 2113 ft | 11 kts | 172° |
| 2026-05-08 16:02 | 24.56515 | 39.70764 | 2114 ft | 13 kts | 168° |
| 2026-05-08 16:02 | 24.56420 | 39.70784 | 2114 ft | 15 kts | 169° |
| 2026-05-08 16:02 | 24.56310 | 39.70805 | 2114 ft | 17 kts | 169° |
| 2026-05-08 16:02 | 24.56185 | 39.70831 | 2114 ft | 19 kts | 169° |
| 2026-05-08 16:03 | 24.56047 | 39.70861 | 2113 ft | 21 kts | 168° |
| 2026-05-08 16:03 | 24.55938 | 39.70884 | 2113 ft | 14 kts | 168° |
| 2026-05-08 16:03 | 24.55835 | 39.70907 | 2113 ft | 16 kts | 168° |
| 2026-05-08 16:03 | 24.55715 | 39.70932 | 2113 ft | 19 kts | 169° |
| 2026-05-08 16:04 | 24.55580 | 39.70961 | 2112 ft | 21 kts | 169° |
| 2026-05-08 16:04 | 24.55429 | 39.70992 | 2112 ft | 23 kts | 169° |
| 2026-05-08 16:04 | 24.55303 | 39.71019 | 2113 ft | 7 kts | 169° |
| 2026-05-08 16:04 | 24.55259 | 39.71031 | 2113 ft | 8 kts | 156° |
| 2026-05-08 16:05 | 24.55230 | 39.71082 | 2112 ft | 9 kts | 97° |
| 2026-05-08 16:05 | 24.55240 | 39.71159 | 2112 ft | 7 kts | 81° |
| 2026-05-08 16:05 | 24.55240 | 39.71165 | 2111 ft | 0 kts | 81° |
| 2026-05-08 16:06 | 24.55242 | 39.71174 | 2111 ft | 3 kts | 79° |
| 2026-05-08 16:06 | 24.55257 | 39.71202 | 2111 ft | 5 kts | 52° |
| 2026-05-08 16:06 | 24.55293 | 39.71217 | 2111 ft | 6 kts | 4° |
| 2026-05-08 16:06 | 24.55339 | 39.71208 | 2111 ft | 8 kts | 350° |
| 2026-05-08 16:07 | 24.55352 | 39.71206 | 2111 ft | 0 kts | 351° |
| 2026-05-08 16:07 | 24.55353 | 39.71206 | 2111 ft | 0 kts | 351° |
| 2026-05-08 16:07 | 24.55357 | 39.71206 | 2111 ft | 1 kts | 358° |
| 2026-05-08 16:07 | 24.55363 | 39.71208 | 2111 ft | 0 kts | 15° |
| 2026-05-08 16:08 | 24.55368 | 39.71213 | 2111 ft | 3 kts | 32° |
| 2026-05-08 16:08 | 24.55384 | 39.71258 | 2111 ft | 10 kts | 81° |
| 2026-05-08 16:08 | 24.55387 | 39.71283 | 2111 ft | 0 kts | 81° |
| 2026-05-08 16:08 | 24.55388 | 39.71289 | 2111 ft | 0 kts | 79° |
| 2026-05-08 16:09 | 24.55389 | 39.71292 | 2111 ft | 1 kts | 79° |
| 2026-05-08 16:09 | 24.55389 | 39.71294 | 2111 ft | 0 kts | 79° |